Time;durP1;ratioP1;P1;durP2;ratioP2;P2;SDS_P1;SDS_P2;PMS_P1;PMS_P2;Temp;Humidity;BMP_temperature;BMP_pressure;BME280_temperature;BME280_humidity;BME280_pressure;Samples;Min_cycle;Max_cycle;Signal;HPM_P1;HPM_P2
2023/04/13 00:00:14;;;;;;;1.67;0.60;;;8.30;99.90;;;;;;5038922;28;20495;-43
2023/04/13 00:02:40;;;;;;;3.70;0.77;;;8.20;99.90;;;;;;5040265;28;20494;-43
2023/04/13 00:05:08;;;;;;;3.33;1.00;;;8.30;99.90;;;;;;5038916;28;20128;-43
2023/04/13 00:07:37;;;;;;;1.23;0.70;;;8.20;99.90;;;;;;5019678;28;20763;-43
2023/04/13 00:10:05;;;;;;;2.17;0.95;;;8.20;99.90;;;;;;5035469;28;20033;-42
2023/04/13 00:12:32;;;;;;;2.03;1.05;;;8.20;99.90;;;;;;5039730;28;20032;-43
2023/04/13 00:14:57;;;;;;;3.05;0.77;;;8.20;99.90;;;;;;5037439;28;20464;-42
2023/04/13 00:17:25;;;;;;;2.00;0.80;;;8.20;99.90;;;;;;5040477;28;20108;-43
2023/04/13 00:19:52;;;;;;;1.33;0.93;;;8.20;99.90;;;;;;5039067;28;20028;-43
2023/04/13 00:22:18;;;;;;;3.75;0.88;;;8.20;99.90;;;;;;5039893;28;20538;-42
2023/04/13 00:24:44;;;;;;;1.00;0.60;;;8.20;99.90;;;;;;5038699;28;20040;-42
2023/04/13 00:27:09;;;;;;;2.65;0.80;;;8.20;99.90;;;;;;5039864;28;20040;-44
2023/04/13 00:29:35;;;;;;;1.08;0.70;;;8.20;99.90;;;;;;5033539;28;20021;-43
2023/04/13 00:32:01;;;;;;;2.47;0.70;;;8.20;99.90;;;;;;5040506;28;20116;-43
2023/04/13 00:34:27;;;;;;;1.85;0.70;;;8.20;99.90;;;;;;5040479;28;20447;-43
2023/04/13 00:36:53;;;;;;;1.25;0.68;;;8.20;99.90;;;;;;5038491;28;20761;-43
2023/04/13 00:39:21;;;;;;;0.75;0.65;;;8.20;99.90;;;;;;5032572;28;20025;-43
2023/04/13 00:41:48;;;;;;;0.65;0.43;;;8.20;99.90;;;;;;5037421;28;20051;-43
2023/04/13 00:44:14;;;;;;;0.95;0.65;;;8.20;99.90;;;;;;5039022;28;20029;-42
2023/04/13 00:46:41;;;;;;;1.67;1.00;;;8.20;99.90;;;;;;5039360;28;20889;-41
2023/04/13 00:49:07;;;;;;;1.88;1.20;;;8.20;99.90;;;;;;5038986;28;20029;-43
2023/04/13 00:51:33;;;;;;;0.82;0.75;;;8.20;99.90;;;;;;5039284;28;20094;-44
2023/04/13 00:53:58;;;;;;;1.58;0.90;;;8.20;99.90;;;;;;5044130;28;20063;-43
2023/04/13 00:56:26;;;;;;;1.58;1.00;;;8.20;99.90;;;;;;5042873;28;20153;-44
2023/04/13 00:58:52;;;;;;;0.95;0.80;;;8.20;99.90;;;;;;5042422;28;20892;-43
2023/04/13 01:01:18;;;;;;;1.75;0.80;;;8.20;99.90;;;;;;5042136;28;20038;-43
2023/04/13 01:03:44;;;;;;;2.28;0.93;;;8.20;99.90;;;;;;5042983;28;20503;-43
2023/04/13 01:06:33;;;;;;;2.95;1.05;;;8.20;99.90;;;;;;5043954;28;20053;-44
2023/04/13 01:09:07;;;;;;;1.75;0.80;;;8.20;99.90;;;;;;5043376;28;20475;-44
2023/04/13 01:11:42;;;;;;;1.35;0.70;;;8.10;99.90;;;;;;5042512;28;20039;-44
2023/04/13 01:14:39;;;;;;;1.15;0.80;;;8.10;99.90;;;;;;5043915;28;20033;-43
2023/04/13 01:17:11;;;;;;;1.20;1.10;;;8.00;99.90;;;;;;5043019;28;20382;-43
2023/04/13 01:19:56;;;;;;;2.42;1.20;;;8.00;99.90;;;;;;5031767;28;20458;-43
2023/04/13 01:22:28;;;;;;;3.88;1.10;;;8.00;99.90;;;;;;5037805;28;20037;-43
2023/04/13 01:25:00;;;;;;;3.33;1.17;;;7.90;99.90;;;;;;5043318;28;20078;-42
2023/04/13 01:27:50;;;;;;;3.67;0.98;;;7.90;99.90;;;;;;5043371;28;20033;-43
2023/04/13 01:30:21;;;;;;;2.15;1.05;;;7.90;99.90;;;;;;5029063;28;20041;-42
2023/04/13 01:32:48;;;;;;;2.33;1.10;;;7.90;99.90;;;;;;5040419;28;20648;-43
2023/04/13 01:35:14;;;;;;;2.95;0.80;;;7.90;99.90;;;;;;5043575;28;20484;-43
2023/04/13 01:37:42;;;;;;;1.90;0.90;;;7.90;99.90;;;;;;5043478;28;20029;-42
2023/04/13 01:40:11;;;;;;;2.08;1.00;;;7.90;99.90;;;;;;5030256;28;20036;-43
2023/04/13 01:42:38;;;;;;;2.25;0.88;;;7.90;99.90;;;;;;5033158;28;20033;-43
2023/04/13 01:45:10;;;;;;;1.10;0.70;;;7.90;99.90;;;;;;5043552;28;20598;-45
2023/04/13 01:47:40;;;;;;;2.75;0.90;;;8.00;99.90;;;;;;5040636;28;20087;-43
2023/04/13 01:50:27;;;;;;;1.77;0.90;;;8.00;99.90;;;;;;5042342;28;20448;-43
2023/04/13 01:52:56;;;;;;;3.30;0.93;;;8.00;99.90;;;;;;5042037;28;20350;-43
2023/04/13 01:55:24;;;;;;;2.40;0.90;;;8.00;99.90;;;;;;5042964;28;20049;-44
2023/04/13 01:57:53;;;;;;;2.55;1.00;;;8.00;99.90;;;;;;5040433;28;20029;-42
2023/04/13 02:00:19;;;;;;;1.63;0.90;;;8.00;99.90;;;;;;5041417;28;20138;-44
2023/04/13 02:02:45;;;;;;;2.22;0.80;;;8.00;99.90;;;;;;5042807;28;20120;-43
2023/04/13 02:05:10;;;;;;;2.92;1.20;;;8.00;99.90;;;;;;5043017;28;20170;-44
2023/04/13 02:07:38;;;;;;;2.83;0.95;;;7.90;99.90;;;;;;5039781;28;20032;-43
2023/04/13 02:10:05;;;;;;;3.13;0.90;;;7.90;99.90;;;;;;5042892;28;20103;-43
2023/04/13 02:12:32;;;;;;;2.47;0.82;;;7.90;99.90;;;;;;5042996;28;20108;-43
2023/04/13 02:14:58;;;;;;;2.38;0.85;;;8.00;99.90;;;;;;5041632;28;20029;-42
2023/04/13 02:17:24;;;;;;;2.25;0.90;;;7.90;99.90;;;;;;5041883;28;20029;-42
2023/04/13 02:19:50;;;;;;;4.25;0.93;;;8.00;99.90;;;;;;5042461;28;20036;-41
2023/04/13 02:22:15;;;;;;;1.52;0.77;;;8.00;99.90;;;;;;5042501;28;20036;-42
2023/04/13 02:24:41;;;;;;;1.05;0.90;;;8.00;99.90;;;;;;5042327;28;20040;-42
2023/04/13 02:27:06;;;;;;;2.70;0.95;;;8.00;99.90;;;;;;5038986;28;20402;-42
2023/04/13 02:29:33;;;;;;;1.48;0.73;;;8.00;99.90;;;;;;5034235;28;20059;-43
2023/04/13 02:31:58;;;;;;;1.33;0.70;;;8.00;99.90;;;;;;5040238;28;20411;-41
2023/04/13 02:34:25;;;;;;;1.95;0.85;;;8.00;99.90;;;;;;5041374;28;20041;-43
2023/04/13 02:36:50;;;;;;;1.80;0.70;;;8.10;99.90;;;;;;5041749;28;20072;-43
2023/04/13 02:39:16;;;;;;;2.92;1.23;;;8.00;99.90;;;;;;5031078;28;20508;-43
2023/04/13 02:41:41;;;;;;;3.85;1.25;;;8.10;99.90;;;;;;5041952;28;20083;-42
2023/04/13 02:44:07;;;;;;;1.77;0.93;;;8.00;99.90;;;;;;5029536;28;20028;-42
2023/04/13 02:46:33;;;;;;;2.22;0.95;;;8.00;99.90;;;;;;5041492;28;20036;-42
2023/04/13 02:48:58;;;;;;;5.22;2.13;;;8.00;99.90;;;;;;5041333;28;20040;-42
2023/04/13 02:51:24;;;;;;;2.13;0.90;;;8.00;99.90;;;;;;5041346;28;20039;-42
2023/04/13 02:53:51;;;;;;;2.65;1.00;;;8.00;99.90;;;;;;5031281;28;20021;-43
2023/04/13 02:56:16;;;;;;;2.60;1.10;;;8.00;99.90;;;;;;5041007;28;20074;-42
2023/04/13 02:58:43;;;;;;;1.00;0.80;;;8.00;99.90;;;;;;5041567;28;20793;-42
2023/04/13 03:01:09;;;;;;;3.70;1.38;;;8.00;99.90;;;;;;5041759;28;20069;-43
2023/04/13 03:03:35;;;;;;;4.03;1.15;;;8.00;99.90;;;;;;5039628;28;20108;-43
2023/04/13 03:06:00;;;;;;;2.15;0.90;;;7.90;99.90;;;;;;5041103;28;20025;-43
2023/04/13 03:08:26;;;;;;;1.27;0.90;;;7.90;99.90;;;;;;5042111;28;20067;-43
2023/04/13 03:10:53;;;;;;;1.00;0.70;;;7.90;99.90;;;;;;5040537;28;20818;-42
2023/04/13 03:13:19;;;;;;;0.93;0.88;;;7.90;99.90;;;;;;5041306;28;20029;-42
2023/04/13 03:15:45;;;;;;;1.23;0.90;;;7.90;99.90;;;;;;5041528;28;20109;-43
2023/04/13 03:18:10;;;;;;;2.30;1.02;;;7.90;99.90;;;;;;5040738;28;20036;-43
2023/04/13 03:20:36;;;;;;;2.20;0.93;;;7.80;99.90;;;;;;5040519;28;20021;-43
2023/04/13 03:23:03;;;;;;;1.23;1.00;;;7.80;99.90;;;;;;5039686;28;20378;-41
2023/04/13 03:25:29;;;;;;;1.10;1.00;;;7.70;99.90;;;;;;5025196;28;20025;-43
2023/04/13 03:27:55;;;;;;;2.72;1.05;;;7.60;99.90;;;;;;5041157;28;20024;-42
2023/04/13 03:30:21;;;;;;;2.20;0.82;;;7.60;99.90;;;;;;5040908;28;20123;-43
2023/04/13 03:32:46;;;;;;;2.65;0.90;;;7.50;99.90;;;;;;5040322;28;20805;-43
2023/04/13 03:35:12;;;;;;;1.23;1.00;;;7.50;99.90;;;;;;5023744;28;20428;-42
2023/04/13 03:37:42;;;;;;;2.53;0.98;;;7.40;99.90;;;;;;5040593;28;20040;-42
2023/04/13 03:40:11;;;;;;;0.88;0.65;;;7.40;99.90;;;;;;5040192;28;20025;-43
2023/04/13 03:42:37;;;;;;;3.25;0.82;;;7.40;99.90;;;;;;5040609;28;20032;-42
2023/04/13 03:45:06;;;;;;;2.65;1.30;;;7.30;99.90;;;;;;5039616;28;20792;-43
2023/04/13 03:47:31;;;;;;;1.00;0.80;;;7.20;99.90;;;;;;5040376;28;20053;-42
2023/04/13 03:49:57;;;;;;;1.58;0.80;;;7.20;99.90;;;;;;5041134;28;20463;-43
2023/04/13 03:52:22;;;;;;;0.95;0.90;;;7.20;99.90;;;;;;5040690;28;20032;-43
2023/04/13 03:54:48;;;;;;;1.88;0.98;;;7.20;99.90;;;;;;5028475;28;20110;-43
2023/04/13 03:57:13;;;;;;;2.70;1.05;;;7.10;99.90;;;;;;5041273;28;20078;-43
2023/04/13 03:59:39;;;;;;;2.40;1.00;;;7.10;99.90;;;;;;5040361;28;20124;-42
2023/04/13 04:02:05;;;;;;;2.30;1.17;;;7.10;99.90;;;;;;5039520;28;20119;-43
2023/04/13 04:04:31;;;;;;;1.40;0.88;;;7.00;99.90;;;;;;5039551;28;20029;-43
2023/04/13 04:06:58;;;;;;;1.33;1.10;;;7.00;99.90;;;;;;5039766;28;20067;-42
2023/04/13 04:09:24;;;;;;;1.80;1.25;;;7.00;99.90;;;;;;5039969;28;20036;-42
2023/04/13 04:11:50;;;;;;;1.92;0.90;;;7.00;99.90;;;;;;5040665;28;20020;-42
2023/04/13 04:14:15;;;;;;;2.13;1.30;;;7.00;99.90;;;;;;5038116;28;20381;-42
2023/04/13 04:16:41;;;;;;;0.73;0.70;;;7.00;99.90;;;;;;5039038;28;20060;-42
2023/04/13 04:19:06;;;;;;;2.80;1.00;;;7.00;99.90;;;;;;5040957;28;20083;-42
2023/04/13 04:21:35;;;;;;;2.35;1.10;;;7.00;99.90;;;;;;5039961;28;20083;-43
2023/04/13 04:24:01;;;;;;;2.33;1.08;;;7.00;99.90;;;;;;5031986;28;20025;-43
2023/04/13 04:26:28;;;;;;;2.67;1.02;;;7.10;99.90;;;;;;5040693;28;20040;-43
2023/04/13 04:29:00;;;;;;;2.70;1.00;;;7.10;99.90;;;;;;5038981;28;20040;-44
2023/04/13 04:31:33;;;;;;;1.87;1.00;;;7.00;99.90;;;;;;5020481;28;20838;-44
2023/04/13 04:33:59;;;;;;;1.40;1.05;;;7.10;99.90;;;;;;5026563;28;20167;-42
2023/04/13 04:36:25;;;;;;;1.60;1.08;;;7.10;99.90;;;;;;5039217;28;20044;-43
2023/04/13 04:38:56;;;;;;;2.42;1.30;;;7.20;99.90;;;;;;5040432;28;20747;-43
2023/04/13 04:41:23;;;;;;;2.22;1.30;;;7.20;99.90;;;;;;5040231;28;20036;-44
2023/04/13 04:43:55;;;;;;;2.38;1.25;;;7.10;99.90;;;;;;5036789;28;20029;-43
2023/04/13 04:46:24;;;;;;;2.17;1.00;;;7.10;99.90;;;;;;5036165;28;20933;-42
2023/04/13 04:48:51;;;;;;;1.58;1.10;;;7.00;99.90;;;;;;5038631;28;20044;-43
2023/04/13 04:51:16;;;;;;;3.22;0.90;;;7.00;99.90;;;;;;5040759;28;20120;-43
2023/04/13 04:53:42;;;;;;;2.90;1.20;;;7.00;99.90;;;;;;5040158;28;20439;-43
2023/04/13 04:56:08;;;;;;;1.38;1.15;;;7.00;99.90;;;;;;5033737;28;20768;-42
2023/04/13 04:58:33;;;;;;;3.83;1.58;;;7.00;99.90;;;;;;5039976;28;20746;-43
2023/04/13 05:00:59;;;;;;;3.17;1.63;;;7.00;99.90;;;;;;5039813;28;20546;-43
2023/04/13 05:03:24;;;;;;;1.92;1.42;;;7.10;99.90;;;;;;5038756;28;20597;-44
2023/04/13 05:05:50;;;;;;;3.22;1.52;;;7.10;99.90;;;;;;5029106;28;20029;-43
2023/04/13 05:08:16;;;;;;;4.40;1.83;;;7.10;99.90;;;;;;5034802;28;20568;-43
2023/04/13 05:10:47;;;;;;;4.88;1.90;;;7.00;99.90;;;;;;5038633;28;20236;-43
2023/04/13 05:13:13;;;;;;;3.63;1.80;;;7.10;99.90;;;;;;5039583;28;20151;-42
2023/04/13 05:15:39;;;;;;;2.83;1.88;;;7.10;99.90;;;;;;5038359;28;20385;-45
2023/04/13 05:18:05;;;;;;;4.63;2.25;;;7.20;99.90;;;;;;5039656;28;20638;-43
2023/04/13 05:20:33;;;;;;;4.07;2.17;;;7.20;99.90;;;;;;5039618;28;20541;-43
2023/04/13 05:22:59;;;;;;;2.55;2.05;;;7.30;99.90;;;;;;5040043;28;20033;-42
2023/04/13 05:25:25;;;;;;;2.78;2.22;;;7.20;99.90;;;;;;5039007;28;20025;-42
2023/04/13 05:27:50;;;;;;;4.25;2.72;;;7.30;99.90;;;;;;5039715;28;20033;-43
2023/04/13 05:30:16;;;;;;;4.85;3.08;;;7.20;99.90;;;;;;5038683;28;20500;-43
2023/04/13 05:32:42;;;;;;;3.30;3.00;;;7.30;99.90;;;;;;5039400;28;20036;-43
2023/04/13 05:35:09;;;;;;;4.05;2.85;;;7.40;99.90;;;;;;5039652;28;20025;-43
2023/04/13 05:37:35;;;;;;;3.92;2.78;;;7.40;99.90;;;;;;5028075;28;20559;-43
2023/04/13 05:40:01;;;;;;;2.75;2.20;;;7.50;99.90;;;;;;5034089;28;20037;-42
2023/04/13 05:42:27;;;;;;;5.72;3.05;;;7.50;99.90;;;;;;5039365;28;20098;-43
2023/04/13 05:44:52;;;;;;;5.20;3.13;;;7.50;99.90;;;;;;5040267;28;20025;-43
2023/04/13 05:47:21;;;;;;;6.38;3.72;;;7.50;99.90;;;;;;5042118;28;20060;-44
2023/04/13 05:49:46;;;;;;;6.80;4.05;;;7.50;99.90;;;;;;5041351;28;20029;-43
2023/04/13 05:52:12;;;;;;;7.20;3.97;;;7.40;99.90;;;;;;5042012;28;20089;-43
2023/04/13 05:54:37;;;;;;;5.72;3.72;;;7.50;99.90;;;;;;5042362;28;20761;-43
2023/04/13 05:57:03;;;;;;;6.10;3.70;;;7.50;99.90;;;;;;5043144;28;20029;-43
2023/04/13 05:59:28;;;;;;;5.82;3.88;;;7.50;99.90;;;;;;5041025;28;20157;-44
2023/04/13 06:01:54;;;;;;;8.93;3.67;;;7.60;99.90;;;;;;5039434;28;20128;-43
2023/04/13 06:04:21;;;;;;;6.25;3.72;;;7.70;99.90;;;;;;5029336;28;20033;-43
2023/04/13 06:06:46;;;;;;;5.32;3.65;;;7.80;99.90;;;;;;5031242;28;20056;-43
2023/04/13 06:09:13;;;;;;;4.90;3.10;;;7.90;99.90;;;;;;5043334;28;20564;-43
2023/04/13 06:11:39;;;;;;;4.47;3.20;;;8.10;99.90;;;;;;5041553;28;20108;-43
2023/04/13 06:14:05;;;;;;;5.57;3.13;;;8.10;99.90;;;;;;5037214;28;20032;-43
2023/04/13 06:16:30;;;;;;;6.30;3.33;;;8.20;99.90;;;;;;5030446;28;20040;-43
2023/04/13 06:18:56;;;;;;;7.20;3.67;;;8.20;99.90;;;;;;5042401;28;20028;-42
2023/04/13 06:21:22;;;;;;;5.47;3.30;;;8.20;99.90;;;;;;5041243;28;20036;-43
2023/04/13 06:23:49;;;;;;;5.18;2.95;;;8.20;99.90;;;;;;5041228;28;20100;-44
2023/04/13 06:26:16;;;;;;;5.50;3.20;;;8.20;99.90;;;;;;5039389;28;20071;-43
2023/04/13 06:28:42;;;;;;;6.95;3.30;;;8.20;99.90;;;;;;5040762;28;20055;-43
2023/04/13 06:31:07;;;;;;;7.70;4.38;;;8.20;99.90;;;;;;5042232;28;20151;-45
2023/04/13 06:33:33;;;;;;;5.00;3.50;;;8.30;99.90;;;;;;5041915;28;20131;-42
2023/04/13 06:35:59;;;;;;;5.85;3.65;;;8.20;99.90;;;;;;5039494;28;20057;-44
2023/04/13 06:38:24;;;;;;;5.60;3.33;;;8.20;99.90;;;;;;5040707;28;20033;-43
2023/04/13 06:40:50;;;;;;;5.30;3.08;;;8.20;99.90;;;;;;5034178;28;20033;-43
2023/04/13 06:43:15;;;;;;;4.40;2.45;;;8.20;99.90;;;;;;5042187;28;20142;-44
2023/04/13 06:45:41;;;;;;;4.10;2.40;;;8.20;99.90;;;;;;5040378;28;20270;-43
2023/04/13 06:48:07;;;;;;;4.70;1.98;;;8.20;99.90;;;;;;5041167;28;20221;-44
2023/04/13 06:50:32;;;;;;;2.45;1.80;;;8.30;99.90;;;;;;5042365;28;20770;-44
2023/04/13 06:52:58;;;;;;;3.15;1.60;;;8.30;99.90;;;;;;5041016;28;20107;-43
2023/04/13 06:55:24;;;;;;;3.10;1.95;;;8.30;99.90;;;;;;5039731;28;20029;-43
2023/04/13 06:57:49;;;;;;;3.88;1.75;;;8.30;99.90;;;;;;5040768;28;20036;-43
2023/04/13 07:00:16;;;;;;;4.32;1.90;;;8.30;99.90;;;;;;5034480;28;20040;-42
2023/04/13 07:02:41;;;;;;;2.92;2.10;;;8.30;99.90;;;;;;5038018;28;20040;-43
2023/04/13 07:05:07;;;;;;;4.05;2.40;;;8.30;99.90;;;;;;5033311;28;20025;-43
2023/04/13 07:07:36;;;;;;;5.25;2.55;;;8.30;99.90;;;;;;5039774;28;20115;-43
2023/04/13 07:10:04;;;;;;;4.05;2.13;;;8.20;99.90;;;;;;5040710;28;20024;-42
2023/04/13 07:12:32;;;;;;;5.63;2.95;;;8.20;99.90;;;;;;5040876;28;20878;-43
2023/04/13 07:14:58;;;;;;;3.40;2.10;;;8.10;99.90;;;;;;5039723;28;20029;-42
2023/04/13 07:17:23;;;;;;;2.83;2.08;;;8.10;99.90;;;;;;5039052;28;20032;-42
2023/04/13 07:19:49;;;;;;;2.83;2.00;;;8.10;99.90;;;;;;5039383;28;20029;-43
2023/04/13 07:22:15;;;;;;;2.58;1.85;;;8.20;99.90;;;;;;5040401;28;20040;-42
2023/04/13 07:24:41;;;;;;;2.13;1.92;;;8.20;99.90;;;;;;5040149;28;20697;-42
2023/04/13 07:27:06;;;;;;;3.55;1.95;;;8.20;99.90;;;;;;5041453;28;20372;-42
2023/04/13 07:29:32;;;;;;;3.03;1.70;;;8.20;99.90;;;;;;5040559;28;20499;-43
2023/04/13 07:32:02;;;;;;;4.72;2.10;;;8.10;99.90;;;;;;5039216;28;20487;-44
2023/04/13 07:34:29;;;;;;;3.42;2.15;;;8.10;99.90;;;;;;5039544;28;20025;-43
2023/04/13 07:36:55;;;;;;;2.75;1.90;;;8.10;99.90;;;;;;5033106;28;20042;-43
2023/04/13 07:39:20;;;;;;;3.60;1.80;;;8.20;99.90;;;;;;5029003;28;20025;-44
2023/04/13 07:41:46;;;;;;;5.22;2.00;;;8.40;99.90;;;;;;5040029;28;20033;-44
2023/04/13 07:44:13;;;;;;;3.45;1.73;;;8.50;99.90;;;;;;5039052;28;20783;-43
2023/04/13 07:46:39;;;;;;;3.58;1.77;;;8.60;99.90;;;;;;5040745;28;20395;-44
2023/04/13 07:49:05;;;;;;;3.65;1.88;;;8.70;99.90;;;;;;5040054;28;20033;-44
2023/04/13 07:51:33;;;;;;;4.68;1.80;;;8.60;99.90;;;;;;5036697;28;20083;-43
2023/04/13 07:53:59;;;;;;;3.95;1.60;;;8.60;99.90;;;;;;5021231;28;20108;-43
2023/04/13 07:56:25;;;;;;;4.25;1.60;;;8.60;99.90;;;;;;5038783;28;20037;-43
2023/04/13 07:58:50;;;;;;;5.78;1.80;;;8.60;99.90;;;;;;5039425;28;20044;-42
2023/04/13 08:01:16;;;;;;;5.30;1.63;;;8.70;99.90;;;;;;5039725;28;20045;-43
2023/04/13 08:03:41;;;;;;;4.22;1.80;;;8.70;99.90;;;;;;5029445;28;20034;-43
2023/04/13 08:06:08;;;;;;;5.85;2.30;;;8.80;99.90;;;;;;5037474;28;20043;-44
2023/04/13 08:08:34;;;;;;;6.10;2.00;;;9.00;99.90;;;;;;5040410;28;20818;-43
2023/04/13 08:11:00;;;;;;;5.18;2.03;;;9.00;99.90;;;;;;5038687;28;20032;-43
2023/04/13 08:13:27;;;;;;;6.50;2.47;;;9.20;99.90;;;;;;5034295;28;20199;-43
2023/04/13 08:15:55;;;;;;;9.25;2.90;;;9.20;99.90;;;;;;5026920;28;20044;-44
2023/04/13 08:18:25;;;;;;;6.35;2.85;;;9.20;99.90;;;;;;5034493;28;20029;-43
2023/04/13 08:20:51;;;;;;;4.57;2.40;;;9.30;99.90;;;;;;5039391;28;20124;-44
2023/04/13 08:23:17;;;;;;;7.35;3.42;;;9.30;99.90;;;;;;5039985;28;20044;-43
2023/04/13 08:25:43;;;;;;;6.18;2.30;;;9.40;99.90;;;;;;5039083;28;20620;-43
2023/04/13 08:28:09;;;;;;;5.82;2.40;;;9.40;99.90;;;;;;5039811;28;20056;-43
2023/04/13 08:30:34;;;;;;;6.85;2.42;;;9.40;99.90;;;;;;5039174;28;20384;-42
2023/04/13 08:33:00;;;;;;;7.80;2.05;;;9.40;99.90;;;;;;5039425;28;20037;-43
2023/04/13 08:35:26;;;;;;;8.27;2.40;;;9.30;99.90;;;;;;5038843;28;20037;-43
2023/04/13 08:37:52;;;;;;;5.82;2.38;;;9.30;99.90;;;;;;5035760;28;20160;-44
2023/04/13 08:40:18;;;;;;;7.22;2.08;;;9.40;99.90;;;;;;5033474;28;20017;-44
2023/04/13 08:42:45;;;;;;;7.07;2.45;;;9.40;99.90;;;;;;5037395;28;20059;-42
2023/04/13 08:45:11;;;;;;;6.20;2.08;;;9.40;99.90;;;;;;5040184;28;20025;-42
2023/04/13 08:47:39;;;;;;;5.28;1.70;;;9.50;99.90;;;;;;5036713;28;20045;-42
2023/04/13 08:50:06;;;;;;;6.85;1.88;;;9.60;99.90;;;;;;5039687;28;20024;-43
2023/04/13 08:52:34;;;;;;;5.70;1.80;;;9.70;99.90;;;;;;5038579;28;20032;-43
2023/04/13 08:55:02;;;;;;;5.40;2.08;;;9.80;99.90;;;;;;5038797;28;20119;-43
2023/04/13 08:57:39;;;;;;;11.80;1.92;;;9.90;99.90;;;;;;5039600;28;20105;-43
2023/04/13 09:00:15;;;;;;;5.43;1.75;;;10.10;99.90;;;;;;5037094;28;20029;-43
2023/04/13 09:02:46;;;;;;;5.63;1.42;;;10.20;99.90;;;;;;5039751;28;20090;-42
2023/04/13 09:05:19;;;;;;;6.70;2.10;;;10.20;99.90;;;;;;5040608;28;20107;-43
2023/04/13 09:07:50;;;;;;;5.78;1.75;;;10.30;99.90;;;;;;5039935;28;20135;-43
2023/04/13 09:10:17;;;;;;;7.38;2.08;;;10.40;99.90;;;;;;5041918;28;20051;-43
2023/04/13 09:12:43;;;;;;;7.75;1.67;;;10.40;99.90;;;;;;5043221;28;20029;-43
2023/04/13 09:15:15;;;;;;;7.47;1.95;;;10.50;99.90;;;;;;5044054;28;20484;-44
2023/04/13 09:17:41;;;;;;;6.00;1.90;;;10.40;99.90;;;;;;5036315;28;20024;-42
2023/04/13 09:20:11;;;;;;;9.75;2.00;;;10.50;99.90;;;;;;5041697;28;20521;-43
2023/04/13 09:22:36;;;;;;;5.72;1.23;;;10.50;99.90;;;;;;5043183;28;20787;-42
2023/04/13 09:25:04;;;;;;;8.70;1.70;;;10.50;99.90;;;;;;5042663;28;20033;-43
2023/04/13 09:27:29;;;;;;;6.68;1.70;;;10.60;99.90;;;;;;5041211;28;20037;-43
2023/04/13 09:29:56;;;;;;;7.05;1.45;;;10.60;99.90;;;;;;5041483;28;20066;-43
2023/04/13 09:32:26;;;;;;;5.05;1.83;;;10.50;99.90;;;;;;5043900;28;20029;-44
2023/04/13 09:35:03;;;;;;;8.07;1.92;;;10.30;99.90;;;;;;5041475;28;20028;-43
2023/04/13 09:37:31;;;;;;;4.45;1.38;;;10.10;99.90;;;;;;5024816;28;20022;-44
2023/04/13 09:40:13;;;;;;;8.43;1.85;;;10.10;99.90;;;;;;5039685;28;20029;-43
2023/04/13 09:42:41;;;;;;;6.90;1.73;;;10.10;99.90;;;;;;5042462;28;20041;-43
2023/04/13 09:45:08;;;;;;;5.32;1.60;;;10.10;99.90;;;;;;5037236;28;20032;-43
2023/04/13 09:47:37;;;;;;;6.75;1.98;;;10.10;99.90;;;;;;5023879;28;20076;-43
2023/04/13 09:50:05;;;;;;;7.90;1.70;;;10.10;99.90;;;;;;5041927;28;20548;-43
2023/04/13 09:52:32;;;;;;;9.32;1.80;;;10.00;99.90;;;;;;5041606;28;20150;-43
2023/04/13 09:54:57;;;;;;;7.78;1.55;;;10.00;99.90;;;;;;5042698;28;20029;-42
2023/04/13 09:57:27;;;;;;;6.32;1.73;;;10.00;99.90;;;;;;5042509;28;20102;-43
2023/04/13 09:59:53;;;;;;;5.43;1.52;;;10.10;99.90;;;;;;5040829;28;20503;-43
2023/04/13 10:02:20;;;;;;;6.07;1.77;;;10.20;99.90;;;;;;5041533;28;20041;-42
2023/04/13 10:04:46;;;;;;;8.20;2.05;;;10.30;99.90;;;;;;5040929;28;20025;-43
2023/04/13 10:07:12;;;;;;;9.23;2.47;;;10.40;99.90;;;;;;5042825;28;20044;-43
2023/04/13 10:09:46;;;;;;;9.25;1.80;;;10.60;99.90;;;;;;5042486;28;20118;-43
2023/04/13 10:12:16;;;;;;;7.68;1.60;;;10.80;99.90;;;;;;5043137;28;20134;-44
2023/04/13 10:14:44;;;;;;;8.40;2.17;;;10.90;99.90;;;;;;5040164;28;20029;-43
2023/04/13 10:17:42;;;;;;;8.48;1.60;;;11.10;99.90;;;;;;5041895;28;20048;-43
2023/04/13 10:20:12;;;;;;;6.72;1.70;;;11.30;99.90;;;;;;5036315;28;20100;-44
2023/04/13 10:22:41;;;;;;;8.40;1.90;;;11.50;99.90;;;;;;5041404;28;20033;-42
2023/04/13 10:25:12;;;;;;;4.18;1.20;;;11.60;99.90;;;;;;5040597;28;20475;-44
2023/04/13 10:27:38;;;;;;;6.88;1.75;;;11.60;99.90;;;;;;5041266;28;20025;-43
2023/04/13 10:30:17;;;;;;;9.88;2.08;;;11.70;99.90;;;;;;5041066;28;20044;-43
2023/04/13 10:32:46;;;;;;;6.50;1.40;;;11.80;99.90;;;;;;5041445;28;20117;-43
2023/04/13 10:35:13;;;;;;;4.65;1.30;;;11.90;99.90;;;;;;5040587;28;20033;-44
2023/04/13 10:37:41;;;;;;;5.15;1.42;;;12.00;99.90;;;;;;5042092;28;20105;-44
2023/04/13 10:40:09;;;;;;;5.53;2.17;;;12.00;99.90;;;;;;5041113;28;20025;-44
2023/04/13 10:42:39;;;;;;;7.68;1.67;;;12.00;99.90;;;;;;5034883;28;20060;-44
2023/04/13 10:45:16;;;;;;;6.05;1.40;;;12.10;99.90;;;;;;5034715;28;20032;-44
2023/04/13 10:47:42;;;;;;;8.15;1.55;;;12.10;99.90;;;;;;5030271;28;20095;-43
2023/04/13 10:50:19;;;;;;;6.85;1.65;;;12.00;99.90;;;;;;5040638;28;20127;-43
2023/04/13 10:53:04;;;;;;;5.10;1.23;;;11.90;99.90;;;;;;5041644;28;20033;-44
2023/04/13 10:55:30;;;;;;;5.80;1.48;;;11.80;99.90;;;;;;5039855;28;20548;-43
2023/04/13 10:57:57;;;;;;;6.63;1.50;;;11.70;99.90;;;;;;5042287;28;20087;-43
2023/04/13 11:00:29;;;;;;;8.15;1.50;;;11.60;99.90;;;;;;5040444;28;20032;-43
2023/04/13 11:02:56;;;;;;;5.53;1.83;;;11.70;99.90;;;;;;5039988;28;20377;-44
2023/04/13 11:05:23;;;;;;;7.93;2.33;;;11.60;99.90;;;;;;5028941;28;20029;-44
2023/04/13 11:07:49;;;;;;;7.20;1.67;;;11.60;99.90;;;;;;5041124;28;20483;-43
2023/04/13 11:10:26;;;;;;;7.60;1.73;;;11.60;99.90;;;;;;5040702;28;20110;-43
2023/04/13 11:12:53;;;;;;;7.95;2.25;;;11.70;99.90;;;;;;5041315;28;20056;-43
2023/04/13 11:15:26;;;;;;;6.60;1.77;;;11.80;99.90;;;;;;5037806;28;20060;-43
2023/04/13 11:17:52;;;;;;;;;;;12.00;99.90;;;;;;5041851;28;20028;-43
2023/04/13 11:20:18;;;;;;;8.70;2.15;;;12.10;99.90;;;;;;5041753;28;20611;-43
2023/04/13 11:22:44;;;;;;;6.28;1.58;;;12.20;99.90;;;;;;5040249;28;20069;-43
2023/04/13 11:25:13;;;;;;;4.40;1.58;;;12.20;99.90;;;;;;5040023;28;20219;-43
2023/04/13 11:27:39;;;;;;;6.80;1.98;;;12.30;99.90;;;;;;5033127;28;20043;-44
2023/04/13 11:30:07;;;;;;;6.45;1.67;;;12.50;99.90;;;;;;5038385;28;20056;-43
2023/04/13 11:32:35;;;;;;;6.07;1.55;;;12.50;99.90;;;;;;5040963;28;20484;-43
2023/04/13 11:35:22;;;;;;;6.28;2.40;;;12.50;99.90;;;;;;5039420;28;20498;-43
2023/04/13 11:37:51;;;;;;;8.82;1.63;;;12.40;99.90;;;;;;5038957;28;20021;-44
2023/04/13 11:40:24;;;;;;;8.93;1.35;;;12.40;99.90;;;;;;5041102;28;20029;-44
2023/04/13 11:42:52;;;;;;;5.70;1.50;;;12.40;99.90;;;;;;5040015;28;20086;-42
2023/04/13 11:45:19;;;;;;;6.45;1.67;;;12.30;99.90;;;;;;5040226;28;20029;-42
2023/04/13 11:47:45;;;;;;;4.95;1.65;;;12.30;99.90;;;;;;5039067;28;20101;-43
2023/04/13 11:50:12;;;;;;;5.20;1.88;;;12.20;99.90;;;;;;5032872;28;20622;-43
2023/04/13 11:52:39;;;;;;;4.65;1.45;;;12.20;99.90;;;;;;5039607;28;20040;-43
2023/04/13 11:55:06;;;;;;;5.47;1.25;;;12.10;99.90;;;;;;5040086;28;20492;-43
2023/04/13 11:57:32;;;;;;;8.15;1.67;;;12.00;99.90;;;;;;5038482;28;20415;-43
2023/04/13 11:59:58;;;;;;;5.90;1.63;;;12.00;99.90;;;;;;5034599;28;20021;-42
2023/04/13 12:02:29;;;;;;;5.25;1.40;;;12.10;99.90;;;;;;5022739;28;20103;-43
2023/04/13 12:04:55;;;;;;;4.28;1.48;;;12.10;99.90;;;;;;5037347;28;20124;-43
2023/04/13 12:07:21;;;;;;;6.25;1.67;;;12.30;99.90;;;;;;5039664;28;20059;-43
2023/04/13 12:09:49;;;;;;;4.05;1.25;;;12.50;99.90;;;;;;5037593;28;20476;-42
2023/04/13 12:12:20;;;;;;;9.32;1.60;;;12.70;99.90;;;;;;5040364;28;20040;-43
2023/04/13 12:14:59;;;;;;;5.57;1.60;;;12.90;99.90;;;;;;5040129;28;20802;-42
2023/04/13 12:17:32;;;;;;;6.55;1.35;;;13.00;99.90;;;;;;5028024;28;20025;-43
2023/04/13 12:19:59;;;;;;;6.97;1.63;;;13.00;99.90;;;;;;5038297;28;20041;-42
2023/04/13 12:22:42;;;;;;;3.65;1.45;;;13.10;99.90;;;;;;5038545;28;20032;-43
2023/04/13 12:25:21;;;;;;;5.80;1.63;;;13.30;99.90;;;;;;5038694;28;20059;-44
2023/04/13 12:27:51;;;;;;;5.75;1.67;;;13.30;99.90;;;;;;5020935;28;20106;-42
2023/04/13 12:30:18;;;;;;;6.13;1.58;;;13.40;99.90;;;;;;5039938;28;20033;-43
2023/04/13 12:32:45;;;;;;;3.95;1.20;;;13.40;99.90;;;;;;5024770;28;20794;-43
2023/04/13 12:35:12;;;;;;;4.20;1.38;;;13.40;99.90;;;;;;5036737;28;20063;-43
2023/04/13 12:37:41;;;;;;;5.95;1.40;;;13.50;99.90;;;;;;5038425;28;20028;-44
2023/04/13 12:40:14;;;;;;;4.70;1.48;;;13.70;99.90;;;;;;5035586;28;20036;-43
2023/04/13 12:42:41;;;;;;;3.95;1.20;;;13.80;99.90;;;;;;5038533;28;20075;-44
2023/04/13 12:45:07;;;;;;;6.07;1.60;;;13.90;99.90;;;;;;5038971;28;20017;-43
2023/04/13 12:47:33;;;;;;;5.63;1.48;;;13.80;99.90;;;;;;5040740;28;20590;-43
2023/04/13 12:49:59;;;;;;;4.57;1.50;;;13.60;99.90;;;;;;5040820;28;20028;-43
2023/04/13 12:52:27;;;;;;;7.93;1.80;;;13.50;99.90;;;;;;5043726;28;20041;-44
2023/04/13 12:54:53;;;;;;;7.30;1.65;;;13.40;99.90;;;;;;5041954;28;20042;-44
2023/04/13 12:57:18;;;;;;;6.15;2.00;;;13.30;99.90;;;;;;5044647;28;20037;-43